x

Southeast Of Ponce, Pr (42085) Wave Buoy

3:00pm - Fri 29th Aug 2014 All times are AST. -4 hours from GMT.

  • Sig Wave height 2.6ft
  • Peak Period 6s
  • Wind
    13mph, 16mph gusts
  • Sea Temp 85°f
  • Sea Pressure 1014.6mb
  • Southeast Of Ponce, Pr
  • Southeast Of Ponce, Pr

More Historic Weather Station data

Upgrade to MSW Pro to gain access to the past 30 days of data for over 8000 Wavebouys and Weather Stations around the globe.

Join Pro

Comparision Forecast

View Surf forecast
   
Fri 08/29 3:00pm 2.5ft 6s 13 16 mph 1014.6mb 85f
2:00pm 2.5ft 6s 13 16 mph 1014.6mb 85f
1:00pm 2.5ft 6s 13 16 mph 1015.6mb 85f
12:00pm 2.5ft 6s 11 13 mph 1016.2mb 84f
11:00am 2.5ft 7s 11 13 mph 1016.4mb 84f
10:00am 2.5ft 6s 9 13 mph 1016.5mb 84f
9:00am 3ft 6s 13
mph
1016.1mb 84f
8:00am 3ft 6s 13 16 mph 1015.7mb 84f
7:00am 3ft 6s 7 9 mph 1015.1mb 84f
6:00am 3.5ft 6s 7 9 mph 1014.6mb 84f
5:00am 3ft 6s 11 13 mph 1014.5mb 84f
4:00am 3ft 7s 11 13 mph 1014.6mb 84f
3:00am 3ft 7s 9 13 mph 1015.1mb 84f
2:00am 3ft 6s 11 13 mph 1014.9mb 84f
1:00am 3.5ft 6s 11
mph
1015.4mb 84f
12:00am 3ft 6s 7 9 mph 1015.8mb 84f
Thu 08/28 11:00pm 3ft 7s 9 11 mph 1016.2mb 84f
10:00pm 3.5ft 7s 9 11 mph 1015.9mb 84f
9:00pm 3.5ft 7s 13 16 mph 1015.5mb 84f
8:00pm 3.5ft 7s 13 16 mph 1014.5mb 84f
7:00pm 3.5ft 6s 13 16 mph 1014.3mb 84f
6:00pm 4ft 5s 16 20 mph 1013.5mb 84f
5:00pm 4.5ft 8s 18 22 mph 1013.2mb 84f
4:00pm 5ft 7s 20 25 mph 1013.1mb 84f
3:00pm 5ft 7s 20 27 mph 1012.4mb 84f
2:00pm 5.5ft 7s 20 25 mph 1013mb 84f
1:00pm 6ft 7s 22 27 mph 1013.6mb 84f
12:00pm 6ft 6s 25 29 mph 1013.8mb 84f
11:00am 6ft 6s 27 31 mph 1013.7mb 84f
10:00am 6ft 8s 27 34 mph 1013.7mb 84f
9:00am 5ft 7s 25 29 mph 1013.7mb 84f
8:00am 5ft 8s 22 29 mph 1013.4mb 84f
7:00am 5ft 7s 22 29 mph 1013.2mb 84f
6:00am 4.5ft 7s 20 25 mph 1012.7mb 84f
5:00am 4.5ft 7s 13 16 mph 1012.7mb 84f
4:00am 4.5ft 7s 18 20 mph 1012.7mb 84f
3:00am 4.5ft 7s 18 22 mph 1012.7mb 84f
2:00am 4.5ft 7s 13 16 mph 1013mb 84f
1:00am 4.5ft 7s 20 25 mph 1014.1mb 84f
12:00am 4.5ft 7s 16 20 mph 1015mb 84f
Wed 08/27 11:00pm 4.5ft 7s 18 22 mph 1015.8mb 84f
10:00pm 4.5ft 6s 22 27 mph 1015.8mb 84f
9:00pm 4.5ft 6s 16 20 mph 1015.4mb 84f
8:00pm 4.5ft 7s 20 25 mph 1014.8mb 84f
7:00pm 4ft 7s 18 20 mph 1014mb 84f
6:00pm 4.5ft 7s 20 25 mph 1013.6mb 84f
5:00pm 4.5ft 7s 20 27 mph 1013.6mb 84f
4:00pm 5ft 6s 20 25 mph 1013.4mb 84f
3:00pm 4.5ft 7s 20 25 mph 1013.6mb 84f
2:00pm 5ft 6s 22 27 mph 1014mb 84f
1:00pm 4.5ft 7s 22 27 mph 1014.7mb 84f
12:00pm 4.5ft 7s 20 27 mph 1015.4mb 84f
11:00am 4.5ft 7s 18 22 mph 1015.7mb 84f
10:00am 4ft 6s 20 25 mph 1015.8mb 84f
9:00am 4ft 7s 18 20 mph 1015.7mb 84f
8:00am 4.5ft 6s 16 18 mph 1015.3mb 84f
7:00am 4.5ft 7s 20 22 mph 1014.6mb 84f
6:00am 5ft 7s 18 20 mph 1014.1mb 84f
5:00am 4.5ft 6s 20 22 mph 1013.7mb 84f
4:00am 4.5ft 7s 20 25 mph 1013.6mb 84f
3:00am 4.5ft 7s 20 25 mph 1013.7mb 84f
2:00am 4.5ft 7s 18 20 mph 1014.2mb 84f
1:00am 5ft 7s 16 20 mph 1014.9mb 84f
12:00am 5ft 7s 16 20 mph 1015.6mb 84f
Tue 08/26 11:00pm 5ft 7s 18 20 mph 1015.8mb 84f
10:00pm 5ft 7s 18 20 mph 1015.5mb 84f
9:00pm 5ft 8s 16 20 mph 1014.9mb 84f
8:00pm 5ft 8s 16 18 mph 1014.5mb 84f
7:00pm 6ft 7s 16 20 mph 1013.9mb 84f
6:00pm 5.5ft 7s 13 18 mph 1013.5mb 84f
5:00pm 6ft 7s 16 20 mph 1013.1mb 84f
4:00pm 5.5ft 7s 16 20 mph 1013.1mb 85f
3:00pm 5.5ft 7s 16 18 mph 1013.4mb 84f
2:00pm 5.5ft 7s 16 18 mph 1014mb 84f
1:00pm 5ft 7s 11 16 mph 1014.7mb 84f
12:00pm 5ft 7s 16 18 mph 1014.9mb 84f
11:00am 4.5ft 7s 16 18 mph 1014.9mb 84f
10:00am 4.5ft 6s 16 20 mph 1014.5mb 84f
9:00am 4.5ft 6s 18 20 mph 1014mb 84f
8:00am 4.5ft 7s 16 20 mph 1013.4mb 84f
7:00am 4.5ft 6s 18 22 mph 1012.8mb 84f
6:00am 5ft 7s 13 18 mph 1012.4mb 84f
5:00am 4.5ft 6s 13 16 mph 1012.4mb 84f
4:00am 4.5ft 7s 13 16 mph 1012mb 84f
3:00am 5ft 6s 16 18 mph 1012.1mb 84f
2:00am 5ft 6s 18 22 mph 1012.2mb 84f
1:00am 4.5ft 7s 18 20 mph 1012.5mb 84f
12:00am 4.5ft 6s 16 18 mph 1012.7mb 84f
Mon 08/25 11:00pm 4ft 6s 13 16 mph 1012.2mb 84f
10:00pm 4.5ft 6s 11 13 mph 1012.2mb 84f
9:00pm 4ft 7s 11 13 mph 1011.9mb 84f